createdAt,value
2023-01-30T00:04:22.678Z,30.70
2023-01-30T00:09:22.302Z,28.80
2023-01-30T00:10:05.894Z,28.80
2023-01-30T00:14:22.346Z,28.70
2023-01-30T00:19:22.739Z,26.00
2023-01-30T00:24:22.397Z,26.40
2023-01-30T00:27:59.159Z,26.40
2023-01-30T00:29:22.273Z,31.20
2023-01-30T00:34:22.762Z,27.50
2023-01-30T00:39:22.376Z,28.40
2023-01-30T00:43:16.320Z,28.40
2023-01-30T00:44:32.233Z,28.00
2023-01-30T00:49:22.503Z,27.80
2023-01-30T00:54:22.310Z,25.80
2023-01-30T00:59:22.310Z,26.00
2023-01-30T01:04:22.430Z,25.00
2023-01-30T01:09:22.536Z,26.60
2023-01-30T01:14:22.340Z,26.80
2023-01-30T01:17:05.378Z,26.80
2023-01-30T01:19:22.261Z,23.30
2023-01-30T01:24:22.341Z,26.00
2023-01-30T01:29:22.749Z,21.10
2023-01-30T01:32:46.584Z,21.10
2023-01-30T01:34:22.456Z,20.70
2023-01-30T01:39:22.754Z,22.00
2023-01-30T01:44:24.056Z,20.20
2023-01-30T01:47:15.405Z,20.20
2023-01-30T01:49:25.818Z,19.70
2023-01-30T01:52:27.940Z,19.70
2023-01-30T01:54:28.235Z,18.60
2023-01-30T01:59:29.208Z,18.00
2023-01-30T02:04:33.433Z,18.30
2023-01-30T02:06:00.117Z,18.30
2023-01-30T02:09:22.510Z,17.50
2023-01-30T02:14:23.222Z,16.30
2023-01-30T02:19:30.946Z,16.60
2023-01-30T02:24:41.961Z,14.60
2023-01-30T02:29:38.643Z,15.40
2023-01-30T02:34:20.013Z,15.30
2023-01-30T02:34:32.500Z,15.30
2023-01-30T02:39:32.326Z,15.60
2023-01-30T02:44:29.341Z,15.80
2023-01-30T02:49:28.217Z,16.90
2023-01-30T02:54:22.480Z,18.90
2023-01-30T02:57:34.860Z,19.30
2023-01-30T02:59:28.936Z,19.30
2023-01-30T03:04:36.767Z,19.10
2023-01-30T03:09:37.071Z,18.90
2023-01-30T03:14:26.349Z,19.40
2023-01-30T03:16:05.911Z,19.40
2023-01-30T03:19:22.352Z,18.60
2023-01-30T03:21:48.223Z,18.60
2023-01-30T03:24:23.002Z,18.10
2023-01-30T03:29:22.770Z,20.60
2023-01-30T03:34:22.129Z,16.70
2023-01-30T03:39:23.358Z,18.30
2023-01-30T03:44:22.149Z,17.30
2023-01-30T03:49:22.611Z,21.10
2023-01-30T03:50:56.038Z,21.10
2023-01-30T03:54:22.164Z,19.10
2023-01-30T03:59:22.460Z,19.60
2023-01-30T04:04:22.637Z,18.30
2023-01-30T04:09:22.118Z,18.80
2023-01-30T04:13:43.131Z,21.20
2023-01-30T04:14:22.132Z,21.20
2023-01-30T04:19:22.530Z,20.10
2023-01-30T04:24:22.143Z,21.80
2023-01-30T04:24:49.245Z,21.80
2023-01-30T04:29:22.093Z,21.00
2023-01-30T04:30:38.214Z,21.00
2023-01-30T04:34:22.404Z,21.50
2023-01-30T04:34:31.829Z,21.50
2023-01-30T04:39:22.267Z,20.80
2023-01-30T04:44:22.591Z,19.40
2023-01-30T04:49:22.061Z,19.30
2023-01-30T04:50:42.392Z,19.30
2023-01-30T04:54:22.272Z,19.50
2023-01-30T04:55:22.290Z,19.50
2023-01-30T04:59:22.472Z,20.20
2023-01-30T05:04:22.061Z,17.90
2023-01-30T05:09:22.707Z,18.20
2023-01-30T05:14:22.127Z,18.80
2023-01-30T05:19:22.086Z,16.80
2023-01-30T05:21:42.251Z,17.10
2023-01-30T05:24:22.045Z,17.10
2023-01-30T05:29:22.312Z,15.00
2023-01-30T05:34:22.280Z,15.80
2023-01-30T05:39:22.058Z,16.90
2023-01-30T05:44:22.404Z,15.70
2023-01-30T05:49:22.400Z,16.00
2023-01-30T05:54:22.025Z,15.40
2023-01-30T05:56:05.180Z,15.30
2023-01-30T05:59:22.166Z,15.30
2023-01-30T06:00:30.563Z,15.30
2023-01-30T06:04:22.088Z,16.50
2023-01-30T06:05:56.584Z,16.50
2023-01-30T06:07:13.301Z,16.10
2023-01-30T06:09:21.999Z,16.10
2023-01-30T06:14:22.493Z,15.30
2023-01-30T06:19:22.219Z,15.70
2023-01-30T06:24:22.251Z,15.50
2023-01-30T06:29:22.219Z,16.60
2023-01-30T06:30:12.906Z,16.60
2023-01-30T06:34:22.076Z,14.70
2023-01-30T06:39:22.221Z,14.70
2023-01-30T06:44:22.580Z,15.90
2023-01-30T06:49:21.966Z,16.30
2023-01-30T06:54:22.138Z,16.60
2023-01-30T06:59:22.550Z,17.10
2023-01-30T07:04:21.990Z,17.20
2023-01-30T07:09:22.011Z,17.00
2023-01-30T07:14:22.255Z,17.20
2023-01-30T07:19:22.028Z,18.00
2023-01-30T07:23:50.648Z,18.00
2023-01-30T07:24:21.940Z,18.00
2023-01-30T07:25:36.031Z,20.00
2023-01-30T07:29:22.015Z,20.00
2023-01-30T07:32:57.090Z,19.40
2023-01-30T07:34:21.991Z,19.40
2023-01-30T07:39:22.291Z,19.50
2023-01-30T07:44:22.000Z,18.30
2023-01-30T07:49:13.165Z,19.80
2023-01-30T07:49:21.951Z,19.80
2023-01-30T07:52:47.062Z,19.10
2023-01-30T07:54:22.033Z,19.10
2023-01-30T07:55:44.083Z,20.60
2023-01-30T07:56:55.759Z,20.60
2023-01-30T07:59:21.942Z,20.60
2023-01-30T08:03:13.577Z,19.60
2023-01-30T08:04:22.090Z,19.60
2023-01-30T08:09:22.133Z,23.30
2023-01-30T08:10:21.405Z,22.40
2023-01-30T08:14:22.356Z,22.40
2023-01-30T08:17:31.822Z,24.40
2023-01-30T08:19:22.063Z,24.40
2023-01-30T08:24:21.927Z,23.50
2023-01-30T08:29:24.282Z,23.70
2023-01-30T08:34:21.915Z,25.50
2023-01-30T08:39:21.887Z,25.30
2023-01-30T08:42:26.552Z,25.80
2023-01-30T08:44:22.053Z,25.80
2023-01-30T08:49:21.855Z,26.10
2023-01-30T08:53:42.847Z,26.10
2023-01-30T08:54:21.969Z,26.10
2023-01-30T08:59:22.065Z,27.20
2023-01-30T09:04:23.987Z,28.30
2023-01-30T09:06:18.559Z,26.80
2023-01-30T09:09:22.013Z,26.80
2023-01-30T09:14:22.166Z,29.10
2023-01-30T09:19:23.747Z,26.50
2023-01-30T09:24:25.495Z,29.70
2023-01-30T09:24:35.808Z,29.70
2023-01-30T09:29:22.714Z,27.90
2023-01-30T09:32:52.854Z,27.90
2023-01-30T09:34:26.417Z,29.50
2023-01-30T09:37:34.652Z,29.50
2023-01-30T09:39:22.701Z,27.90
2023-01-30T09:39:32.927Z,27.90
2023-01-30T09:44:41.280Z,27.80
2023-01-30T09:49:35.889Z,29.90
2023-01-30T09:54:28.573Z,30.30
2023-01-30T09:59:27.042Z,78.50
2023-01-30T10:04:27.516Z,28.60
2023-01-30T10:09:30.082Z,24.90
2023-01-30T10:13:59.854Z,27.90
2023-01-30T10:14:41.175Z,27.90
2023-01-30T10:17:58.488Z,27.90
2023-01-30T10:19:36.743Z,27.50
2023-01-30T10:23:11.360Z,27.50
2023-01-30T10:24:36.160Z,27.30
2023-01-30T10:29:28.062Z,24.90
2023-01-30T10:34:27.908Z,23.30
2023-01-30T10:37:57.477Z,23.30
2023-01-30T10:39:28.888Z,27.80
2023-01-30T10:42:11.983Z,27.80
2023-01-30T10:44:22.631Z,21.70
2023-01-30T10:49:35.636Z,25.70
2023-01-30T10:51:32.911Z,25.70
2023-01-30T10:54:27.661Z,23.80
2023-01-30T10:55:37.929Z,23.80
2023-01-30T10:58:47.761Z,25.00
2023-01-30T10:59:27.057Z,25.00
2023-01-30T11:04:27.707Z,25.40
2023-01-30T11:09:24.340Z,25.00
2023-01-30T11:11:49.118Z,25.00
2023-01-30T11:14:21.823Z,21.50
2023-01-30T11:14:52.976Z,21.50
2023-01-30T11:19:23.853Z,25.20
2023-01-30T11:19:55.605Z,25.20
2023-01-30T11:24:27.819Z,22.20
2023-01-30T11:29:28.467Z,18.50
2023-01-30T11:33:11.888Z,18.50
2023-01-30T11:34:23.362Z,19.50
2023-01-30T11:34:33.316Z,19.50
2023-01-30T11:39:27.849Z,18.90
2023-01-30T11:41:19.830Z,18.90
2023-01-30T11:42:10.898Z,18.90
2023-01-30T11:44:25.728Z,17.10
2023-01-30T11:46:18.907Z,17.10
2023-01-30T11:49:46.059Z,14.50
2023-01-30T11:49:48.190Z,14.50
2023-01-30T11:54:29.318Z,15.30
2023-01-30T11:55:38.070Z,15.30
2023-01-30T11:59:25.540Z,16.20
2023-01-30T12:03:20.720Z,17.80
2023-01-30T12:04:21.993Z,17.80
2023-01-30T12:09:31.648Z,16.20
2023-01-30T12:10:28.043Z,16.20
2023-01-30T12:12:35.069Z,16.20
2023-01-30T12:14:34.420Z,15.80
2023-01-30T12:16:53.145Z,15.80
2023-01-30T12:19:33.058Z,15.60
2023-01-30T12:24:27.670Z,15.10
2023-01-30T12:29:28.909Z,15.50
2023-01-30T12:31:41.181Z,15.50
2023-01-30T12:33:10.989Z,15.90
2023-01-30T12:34:25.789Z,15.90
2023-01-30T12:34:35.011Z,15.90
2023-01-30T12:39:33.342Z,18.30
2023-01-30T12:39:59.050Z,18.30
2023-01-30T12:44:41.722Z,15.40
2023-01-30T12:46:36.113Z,15.40
2023-01-30T12:49:34.496Z,19.00
2023-01-30T12:54:36.495Z,14.30
2023-01-30T12:59:27.719Z,17.50
2023-01-30T13:03:02.942Z,16.10
2023-01-30T13:04:40.026Z,16.10
2023-01-30T13:09:41.723Z,17.10
2023-01-30T13:14:29.809Z,19.80
2023-01-30T13:19:40.442Z,17.10
2023-01-30T13:21:10.785Z,17.10
2023-01-30T13:24:37.772Z,18.00
2023-01-30T13:29:28.953Z,16.70
2023-01-30T13:34:27.522Z,18.80
2023-01-30T13:39:09.480Z,21.70
2023-01-30T13:39:31.543Z,21.70
2023-01-30T13:43:21.471Z,20.20
2023-01-30T13:44:26.623Z,20.20
2023-01-30T13:49:27.737Z,21.50
2023-01-30T13:51:21.619Z,21.50
2023-01-30T13:54:35.799Z,21.60
2023-01-30T13:59:39.478Z,22.70
2023-01-30T14:00:36.394Z,22.70
2023-01-30T14:04:42.116Z,24.20
2023-01-30T14:09:27.882Z,22.90
2023-01-30T14:14:26.592Z,22.60
2023-01-30T14:19:32.688Z,22.00
2023-01-30T14:24:24.052Z,23.30
2023-01-30T14:29:41.707Z,22.80
2023-01-30T14:34:40.406Z,22.10
2023-01-30T14:39:36.443Z,23.00
2023-01-30T14:42:06.197Z,23.00
2023-01-30T14:43:16.749Z,23.00
2023-01-30T14:44:41.380Z,23.00
2023-01-30T14:46:22.100Z,23.00
2023-01-30T14:49:26.057Z,22.90
2023-01-30T14:54:33.247Z,23.30
2023-01-30T14:59:25.389Z,21.60
2023-01-30T15:04:22.132Z,22.70
2023-01-30T15:06:01.515Z,22.70
2023-01-30T15:09:24.638Z,20.70
2023-01-30T15:14:29.995Z,24.20
2023-01-30T15:19:41.488Z,26.50
2023-01-30T15:24:35.973Z,27.80
2023-01-30T15:29:32.846Z,24.90
2023-01-30T15:34:22.517Z,27.70
2023-01-30T15:39:23.698Z,22.90
2023-01-30T15:43:46.180Z,28.40
2023-01-30T15:44:38.665Z,28.40
2023-01-30T15:46:15.882Z,30.80
2023-01-30T15:49:39.379Z,30.80
2023-01-30T15:54:23.090Z,24.70
2023-01-30T15:58:31.990Z,17.90
2023-01-30T15:59:29.315Z,17.90
2023-01-30T16:00:56.348Z,17.90
2023-01-30T16:04:25.855Z,21.90
2023-01-30T16:06:04.247Z,19.90
2023-01-30T16:09:19.237Z,19.90
2023-01-30T16:09:23.253Z,19.90
2023-01-30T16:14:22.010Z,18.10
2023-01-30T16:16:02.199Z,17.20
2023-01-30T16:19:25.672Z,17.20
2023-01-30T16:19:31.377Z,17.20
2023-01-30T16:24:25.272Z,20.30
2023-01-30T16:29:25.223Z,20.80
2023-01-30T16:32:13.891Z,20.10
2023-01-30T16:33:59.643Z,20.10
2023-01-30T16:34:27.703Z,20.10
2023-01-30T16:38:44.628Z,21.00
2023-01-30T16:39:27.818Z,21.00
2023-01-30T16:42:56.641Z,22.70
2023-01-30T16:44:23.587Z,22.70
2023-01-30T16:49:23.923Z,18.30
2023-01-30T16:50:43.977Z,22.90
2023-01-30T16:54:26.902Z,22.90
2023-01-30T16:55:36.712Z,18.80
2023-01-30T16:59:29.927Z,18.80
2023-01-30T17:04:23.046Z,20.80
2023-01-30T17:09:34.066Z,28.40
2023-01-30T17:10:59.107Z,21.50
2023-01-30T17:14:23.127Z,21.50
2023-01-30T17:19:21.454Z,23.80
2023-01-30T17:24:22.761Z,18.90
2023-01-30T17:29:41.053Z,20.00
2023-01-30T17:34:22.419Z,23.90
2023-01-30T17:38:14.063Z,24.30
2023-01-30T17:39:24.598Z,24.30
2023-01-30T17:44:21.502Z,20.20
2023-01-30T17:49:23.089Z,18.10
2023-01-30T17:53:17.305Z,21.20
2023-01-30T17:54:21.644Z,21.20
2023-01-30T17:59:21.783Z,17.00
2023-01-30T18:02:27.682Z,16.00
2023-01-30T18:04:21.419Z,16.00
2023-01-30T18:04:52.681Z,16.00
2023-01-30T18:09:23.305Z,21.30
2023-01-30T18:11:00.288Z,19.90
2023-01-30T18:14:22.892Z,19.90
2023-01-30T18:14:43.355Z,19.90
2023-01-30T18:17:00.996Z,16.00
2023-01-30T18:19:22.921Z,16.00
2023-01-30T18:21:16.873Z,20.10
2023-01-30T18:24:21.396Z,20.10
2023-01-30T18:29:21.649Z,22.60
2023-01-30T18:34:21.359Z,17.30
2023-01-30T18:36:17.093Z,16.40
2023-01-30T18:38:01.487Z,16.40
2023-01-30T18:39:21.367Z,16.40
2023-01-30T18:44:21.681Z,15.50
2023-01-30T18:46:45.652Z,15.10
2023-01-30T18:49:21.363Z,15.10
2023-01-30T18:53:52.649Z,17.60
2023-01-30T18:54:21.410Z,17.60
2023-01-30T18:56:33.078Z,16.50
2023-01-30T18:59:22.369Z,16.50
2023-01-30T19:04:21.320Z,20.40
2023-01-30T19:09:21.779Z,14.60
2023-01-30T19:14:21.379Z,18.90
2023-01-30T19:16:12.987Z,19.00
2023-01-30T19:19:21.544Z,19.00
2023-01-30T19:23:25.918Z,17.30
2023-01-30T19:24:22.753Z,17.30
2023-01-30T19:29:21.327Z,16.60
2023-01-30T19:34:21.424Z,19.80
2023-01-30T19:39:21.477Z,17.40
2023-01-30T19:41:46.269Z,17.40
2023-01-30T19:44:21.417Z,20.50
2023-01-30T19:48:31.276Z,20.50
2023-01-30T19:49:21.384Z,20.00
2023-01-30T19:54:21.369Z,19.90
2023-01-30T19:59:21.831Z,17.10
2023-01-30T20:04:21.311Z,21.00
2023-01-30T20:09:21.470Z,17.40
2023-01-30T20:14:21.793Z,19.70
2023-01-30T20:19:21.298Z,23.00
2023-01-30T20:20:18.364Z,23.00
2023-01-30T20:24:21.405Z,18.60
2023-01-30T20:29:21.679Z,17.20
2023-01-30T20:34:21.403Z,17.10
2023-01-30T20:36:15.664Z,17.10
2023-01-30T20:39:21.501Z,18.10
2023-01-30T20:44:21.822Z,20.00
2023-01-30T20:46:39.923Z,20.00
2023-01-30T20:49:22.271Z,20.70
2023-01-30T20:52:01.321Z,20.70
2023-01-30T20:54:22.445Z,19.30
2023-01-30T20:55:33.168Z,19.30
2023-01-30T20:58:31.442Z,19.30
2023-01-30T20:59:23.312Z,28.20
2023-01-30T20:59:44.137Z,28.20
2023-01-30T21:00:31.016Z,28.20
2023-01-30T21:04:23.303Z,25.90
2023-01-30T21:06:58.089Z,25.90
2023-01-30T21:09:22.492Z,18.20
2023-01-30T21:11:20.983Z,18.20
2023-01-30T21:14:21.558Z,16.60
2023-01-30T21:19:23.244Z,18.60
2023-01-30T21:24:23.552Z,17.40
2023-01-30T21:24:45.097Z,17.40
2023-01-30T21:27:14.348Z,17.40
2023-01-30T21:29:23.662Z,21.10
2023-01-30T21:34:00.523Z,17.50
2023-01-30T21:34:21.393Z,17.50
2023-01-30T21:35:26.450Z,17.50
2023-01-30T21:39:31.479Z,16.70
2023-01-30T21:44:25.022Z,14.90
2023-01-30T21:49:24.236Z,15.90
2023-01-30T21:50:36.561Z,15.90
2023-01-30T21:51:32.438Z,15.90
2023-01-30T21:54:22.096Z,15.10
2023-01-30T21:57:48.233Z,15.10
2023-01-30T21:59:21.172Z,12.90
2023-01-30T22:01:49.373Z,12.90
2023-01-30T22:04:21.399Z,12.50
2023-01-30T22:08:37.449Z,12.40
2023-01-30T22:09:21.268Z,12.40
2023-01-30T22:14:21.278Z,12.40
2023-01-30T22:19:21.486Z,14.40
2023-01-30T22:21:35.308Z,14.40
2023-01-30T22:24:21.354Z,15.20
2023-01-30T22:29:22.074Z,16.40
2023-01-30T22:34:21.636Z,17.40
2023-01-30T22:39:21.173Z,16.50
2023-01-30T22:44:21.610Z,14.90
2023-01-30T22:49:21.285Z,19.10
2023-01-30T22:54:22.655Z,15.50
2023-01-30T22:59:22.225Z,16.30
2023-01-30T23:04:22.755Z,13.60
2023-01-30T23:09:22.440Z,14.60
2023-01-30T23:14:08.600Z,12.90
2023-01-30T23:14:21.036Z,12.90
2023-01-30T23:19:21.471Z,13.00
2023-01-30T23:20:47.072Z,13.00
2023-01-30T23:21:43.959Z,13.00
2023-01-30T23:24:21.361Z,15.10
2023-01-30T23:27:18.257Z,15.10
2023-01-30T23:29:21.090Z,19.30
2023-01-30T23:34:21.430Z,15.30
2023-01-30T23:39:21.195Z,17.40
2023-01-30T23:44:21.299Z,19.10
2023-01-30T23:49:21.579Z,13.30
2023-01-30T23:54:21.080Z,14.90
2023-01-30T23:55:55.021Z,14.90
2023-01-30T23:59:21.241Z,15.20
